createdAt,value
2022-08-27T00:01:21.926Z,19.98
2022-08-27T00:03:48.537Z,19.98
2022-08-27T00:06:17.360Z,19.73
2022-08-27T00:08:45.760Z,19.76
2022-08-27T00:11:13.726Z,19.75
2022-08-27T00:13:41.207Z,19.75
2022-08-27T00:16:11.056Z,19.77
2022-08-27T00:18:39.022Z,19.65
2022-08-27T00:21:07.017Z,19.52
2022-08-27T00:23:34.450Z,19.52
2022-08-27T00:26:01.436Z,19.42
2022-08-27T00:28:29.162Z,19.47
2022-08-27T00:30:56.081Z,19.53
2022-08-27T00:33:23.496Z,19.37
2022-08-27T00:35:50.849Z,19.34
2022-08-27T00:38:21.454Z,19.37
2022-08-27T00:40:48.594Z,19.42
2022-08-27T00:43:25.006Z,19.50
2022-08-27T00:45:55.614Z,19.53
2022-08-27T00:48:25.890Z,19.54
2022-08-27T00:50:55.476Z,19.54
2022-08-27T00:53:25.222Z,19.49
2022-08-27T00:56:05.086Z,19.45
2022-08-27T00:58:36.213Z,19.34
2022-08-27T01:01:05.736Z,19.44
2022-08-27T01:03:33.029Z,19.42
2022-08-27T01:06:01.672Z,19.45
2022-08-27T01:08:31.698Z,19.51
2022-08-27T01:11:00.461Z,19.40
2022-08-27T01:13:57.105Z,19.34
2022-08-27T01:16:23.302Z,19.39
2022-08-27T01:18:51.037Z,19.24
2022-08-27T01:21:31.598Z,19.08
2022-08-27T01:24:38.911Z,19.08
2022-08-27T01:27:13.419Z,19.21
2022-08-27T01:29:42.401Z,19.13
2022-08-27T01:32:17.965Z,19.17
2022-08-27T01:34:45.913Z,19.05
2022-08-27T01:37:15.853Z,19.11
2022-08-27T01:39:50.075Z,19.12
2022-08-27T01:42:20.213Z,19.14
2022-08-27T01:44:49.081Z,19.26
2022-08-27T01:47:17.489Z,19.30
2022-08-27T01:49:44.200Z,19.30
2022-08-27T01:52:12.037Z,19.26
2022-08-27T01:54:38.685Z,19.07
2022-08-27T01:57:05.342Z,19.16
2022-08-27T01:59:39.397Z,19.16
2022-08-27T02:02:08.161Z,19.19
2022-08-27T02:04:34.918Z,19.20
2022-08-27T02:07:01.529Z,19.17
2022-08-27T02:09:28.178Z,19.18
2022-08-27T02:11:54.950Z,19.30
2022-08-27T02:14:21.484Z,19.40
2022-08-27T02:16:52.494Z,19.40
2022-08-27T02:19:20.359Z,19.36
2022-08-27T02:21:47.266Z,19.51
2022-08-27T02:24:13.916Z,19.49
2022-08-27T02:26:40.533Z,19.40
2022-08-27T02:29:08.018Z,19.51
2022-08-27T02:31:34.623Z,19.49
2022-08-27T02:34:01.582Z,19.49
2022-08-27T02:36:28.409Z,19.50
2022-08-27T02:38:55.884Z,19.56
2022-08-27T02:41:23.116Z,19.56
2022-08-27T02:43:50.077Z,19.46
2022-08-27T02:46:16.928Z,19.42
2022-08-27T02:48:44.608Z,19.47
2022-08-27T02:51:11.454Z,19.46
2022-08-27T02:53:38.250Z,19.56
2022-08-27T02:56:06.428Z,19.55
2022-08-27T02:58:33.655Z,19.71
2022-08-27T03:01:03.726Z,19.75
2022-08-27T03:03:30.501Z,19.72
2022-08-27T03:05:58.627Z,19.68
2022-08-27T03:08:27.006Z,19.53
2022-08-27T03:10:56.653Z,19.61
2022-08-27T03:13:23.967Z,19.62
2022-08-27T03:15:50.562Z,19.69
2022-08-27T03:18:18.167Z,19.75
2022-08-27T03:20:53.032Z,19.57
2022-08-27T03:23:22.522Z,19.44
2022-08-27T03:25:52.464Z,19.32
2022-08-27T03:28:23.321Z,19.34
2022-08-27T03:30:53.263Z,19.62
2022-08-27T03:33:21.575Z,19.56
2022-08-27T03:35:51.737Z,19.57
2022-08-27T03:38:19.219Z,19.40
2022-08-27T03:40:45.846Z,19.32
2022-08-27T03:43:13.974Z,19.42
2022-08-27T03:45:48.602Z,19.58
2022-08-27T03:48:29.917Z,19.45
2022-08-27T03:50:56.522Z,19.50
2022-08-27T03:53:23.158Z,19.41
2022-08-27T03:55:50.165Z,19.24
2022-08-27T03:58:17.938Z,19.08
2022-08-27T04:00:45.094Z,19.14
2022-08-27T04:03:15.115Z,19.07
2022-08-27T04:05:42.521Z,18.98
2022-08-27T04:08:13.271Z,18.94
2022-08-27T04:10:41.196Z,18.73
2022-08-27T04:13:07.802Z,18.65
2022-08-27T04:15:34.425Z,18.64
2022-08-27T04:18:07.523Z,18.50
2022-08-27T04:20:35.720Z,18.61
2022-08-27T04:23:03.037Z,18.66
2022-08-27T04:25:29.687Z,18.58
2022-08-27T04:27:56.462Z,18.57
2022-08-27T04:30:23.048Z,18.45
2022-08-27T04:32:50.548Z,18.37
2022-08-27T04:35:17.253Z,18.38
2022-08-27T04:37:43.869Z,18.49
2022-08-27T04:40:11.034Z,18.49
2022-08-27T04:42:37.974Z,18.48
2022-08-27T04:45:05.249Z,18.55
2022-08-27T04:47:31.790Z,18.46
2022-08-27T04:49:58.954Z,18.59
2022-08-27T04:52:25.978Z,18.69
2022-08-27T04:54:53.671Z,18.62
2022-08-27T04:57:20.862Z,18.85
2022-08-27T04:59:48.002Z,18.82
2022-08-27T05:02:14.719Z,18.83
2022-08-27T05:04:41.701Z,18.68
2022-08-27T05:07:09.278Z,18.55
2022-08-27T05:09:35.946Z,18.45
2022-08-27T05:12:02.821Z,18.28
2022-08-27T05:14:30.439Z,18.25
2022-08-27T05:17:00.724Z,18.26
2022-08-27T05:19:27.692Z,18.20
2022-08-27T05:21:54.668Z,18.39
2022-08-27T05:24:21.754Z,18.50
2022-08-27T05:26:49.256Z,18.69
2022-08-27T05:29:16.076Z,18.74
2022-08-27T05:31:42.910Z,18.62
2022-08-27T05:34:15.480Z,18.42
2022-08-27T05:36:49.320Z,18.26
2022-08-27T05:39:17.182Z,18.19
2022-08-27T05:41:43.981Z,18.13
2022-08-27T05:44:39.001Z,18.16
2022-08-27T05:46:57.504Z,18.11
2022-08-27T05:49:24.245Z,18.02
2022-08-27T05:51:50.789Z,18.02
2022-08-27T05:54:19.578Z,18.02
2022-08-27T05:56:47.865Z,18.02
2022-08-27T05:59:34.852Z,17.96
2022-08-27T06:02:02.595Z,18.04
2022-08-27T06:04:29.978Z,18.05
2022-08-27T06:06:56.611Z,18.11
2022-08-27T06:09:25.922Z,18.00
2022-08-27T06:12:00.416Z,17.84
2022-08-27T06:14:27.971Z,17.93
2022-08-27T06:16:55.005Z,17.92
2022-08-27T06:19:22.339Z,17.98
2022-08-27T06:22:01.160Z,17.97
2022-08-27T06:24:36.213Z,17.99
2022-08-27T06:27:03.065Z,18.10
2022-08-27T06:29:29.761Z,18.15
2022-08-27T06:31:56.340Z,18.24
2022-08-27T06:34:22.893Z,18.31
2022-08-27T06:36:49.520Z,18.35
2022-08-27T06:39:17.080Z,18.36
2022-08-27T06:41:44.902Z,18.34
2022-08-27T06:44:12.660Z,18.30
2022-08-27T06:46:40.395Z,18.49
2022-08-27T06:49:07.364Z,18.43
2022-08-27T06:51:36.202Z,18.44
2022-08-27T06:54:05.248Z,18.48
2022-08-27T06:56:32.285Z,18.57
2022-08-27T06:59:02.546Z,18.54
2022-08-27T07:01:35.836Z,18.81
2022-08-27T07:04:05.947Z,18.86
2022-08-27T07:06:34.107Z,18.99
2022-08-27T07:09:01.400Z,19.06
2022-08-27T07:11:31.834Z,18.97
2022-08-27T07:13:58.592Z,18.98
2022-08-27T07:16:26.896Z,18.94
2022-08-27T07:18:55.819Z,18.97
2022-08-27T07:21:23.847Z,18.92
2022-08-27T07:23:53.213Z,18.83
2022-08-27T07:26:21.696Z,18.85
2022-08-27T07:28:48.244Z,18.87
2022-08-27T07:31:20.619Z,18.80
2022-08-27T07:33:52.697Z,18.78
2022-08-27T07:36:23.825Z,18.99
2022-08-27T07:39:01.315Z,19.04
2022-08-27T07:41:33.153Z,19.03
2022-08-27T07:44:19.225Z,19.08
2022-08-27T07:46:48.784Z,19.10
2022-08-27T07:49:19.336Z,19.08
2022-08-27T07:51:46.301Z,19.07
2022-08-27T07:54:12.991Z,18.99
2022-08-27T07:56:39.889Z,19.09
2022-08-27T07:59:06.765Z,19.08
2022-08-27T08:01:33.586Z,19.12
2022-08-27T08:04:00.269Z,19.00
2022-08-27T08:06:27.213Z,18.99
2022-08-27T08:08:54.516Z,19.10
2022-08-27T08:11:21.109Z,19.26
2022-08-27T08:13:48.278Z,19.28
2022-08-27T08:16:15.884Z,19.46
2022-08-27T08:18:42.915Z,19.52
2022-08-27T08:21:12.656Z,19.61
2022-08-27T08:23:40.589Z,19.76
2022-08-27T08:26:10.428Z,19.70
2022-08-27T08:28:37.055Z,19.68
2022-08-27T08:31:05.016Z,19.56
2022-08-27T08:33:32.501Z,19.49
2022-08-27T08:36:08.005Z,19.72
2022-08-27T08:38:34.968Z,19.85
2022-08-27T08:41:02.086Z,19.79
2022-08-27T08:43:39.207Z,19.71
2022-08-27T08:46:17.246Z,19.57
2022-08-27T08:48:48.752Z,19.67
2022-08-27T08:51:29.272Z,19.55
2022-08-27T08:54:01.825Z,19.73
2022-08-27T08:56:45.320Z,19.81
2022-08-27T08:59:24.730Z,19.85
2022-08-27T09:01:52.156Z,19.72
2022-08-27T09:04:18.809Z,19.64
2022-08-27T09:06:58.278Z,19.76
2022-08-27T09:09:56.686Z,19.65
2022-08-27T09:12:30.568Z,19.69
2022-08-27T09:14:59.963Z,19.72
2022-08-27T09:17:27.648Z,19.75
2022-08-27T09:19:56.031Z,19.77
2022-08-27T09:22:41.793Z,19.78
2022-08-27T09:25:20.685Z,19.69
2022-08-27T09:27:49.400Z,19.55
2022-08-27T09:30:25.499Z,19.54
2022-08-27T09:33:00.396Z,19.73
2022-08-27T09:35:34.284Z,19.86
2022-08-27T09:38:02.607Z,19.76
2022-08-27T09:40:40.019Z,19.78
2022-08-27T09:43:28.539Z,19.99
2022-08-27T09:45:58.297Z,20.07
2022-08-27T09:48:28.338Z,20.17
2022-08-27T09:50:58.482Z,20.21
2022-08-27T09:53:36.638Z,20.09
2022-08-27T09:56:07.770Z,20.17
2022-08-27T09:58:44.689Z,20.25
2022-08-27T10:01:21.882Z,20.18
2022-08-27T10:03:49.413Z,20.16
2022-08-27T10:06:28.173Z,20.30
2022-08-27T10:09:01.936Z,20.31
2022-08-27T10:11:45.859Z,20.34
2022-08-27T10:14:31.535Z,20.11
2022-08-27T10:16:58.133Z,19.89
2022-08-27T10:19:58.204Z,20.04
2022-08-27T10:22:27.657Z,20.12
2022-08-27T10:25:00.768Z,20.05
2022-08-27T10:27:30.185Z,20.06
2022-08-27T10:30:06.032Z,20.09
2022-08-27T10:33:03.822Z,20.34
2022-08-27T10:35:55.805Z,20.15
2022-08-27T10:38:30.660Z,20.07
2022-08-27T10:41:15.720Z,20.31
2022-08-27T10:44:07.065Z,20.27
2022-08-27T10:46:52.144Z,20.11
2022-08-27T10:49:46.359Z,20.10
2022-08-27T10:52:40.657Z,20.20
2022-08-27T10:55:14.738Z,20.21
2022-08-27T10:58:10.968Z,20.34
2022-08-27T11:00:44.094Z,20.29
2022-08-27T11:03:15.910Z,20.28
2022-08-27T11:05:46.497Z,20.30
2022-08-27T11:08:49.959Z,20.22
2022-08-27T11:14:32.831Z,20.38
2022-08-27T11:17:13.454Z,20.40
2022-08-27T11:20:04.127Z,20.60
2022-08-27T11:22:49.008Z,20.58
2022-08-27T11:25:32.599Z,20.66
2022-08-27T11:28:01.102Z,20.71
2022-08-27T11:30:46.263Z,20.69
2022-08-27T11:33:19.614Z,20.70
2022-08-27T11:36:11.240Z,20.87
2022-08-27T11:38:46.507Z,21.10
2022-08-27T11:41:28.235Z,21.00
2022-08-27T11:43:55.541Z,21.09
2022-08-27T11:46:25.661Z,21.16
2022-08-27T11:49:02.804Z,21.29
2022-08-27T11:51:34.684Z,21.28
2022-08-27T11:54:07.744Z,21.38
2022-08-27T11:56:40.559Z,21.41
2022-08-27T11:59:18.948Z,21.48
2022-08-27T12:01:45.533Z,21.38
2022-08-27T12:04:21.301Z,21.51
2022-08-27T12:06:52.669Z,21.76
2022-08-27T12:09:22.924Z,21.80
2022-08-27T12:12:09.882Z,21.91
2022-08-27T12:14:46.139Z,21.67
2022-08-27T12:17:30.376Z,21.68
2022-08-27T12:20:09.956Z,21.86
2022-08-27T12:23:26.460Z,21.85
2022-08-27T12:25:58.858Z,22.03
2022-08-27T12:28:26.961Z,22.15
2022-08-27T12:30:54.907Z,22.05
2022-08-27T12:33:32.979Z,21.88
2022-08-27T12:36:09.639Z,21.86
2022-08-27T12:38:50.514Z,21.91
2022-08-27T12:41:41.091Z,21.78
2022-08-27T12:44:16.624Z,21.64
2022-08-27T12:46:50.442Z,21.62
2022-08-27T12:49:38.949Z,21.64
2022-08-27T12:52:19.365Z,21.62
2022-08-27T12:55:04.386Z,21.87
2022-08-27T12:57:46.636Z,21.83
2022-08-27T13:00:19.675Z,21.78
2022-08-27T13:02:59.074Z,22.06
2022-08-27T13:05:26.123Z,22.15
2022-08-27T13:07:55.274Z,22.02
2022-08-27T13:10:27.957Z,22.16
2022-08-27T13:13:15.202Z,22.25
2022-08-27T13:15:58.496Z,22.38
2022-08-27T13:18:29.483Z,22.41
2022-08-27T13:21:18.223Z,22.35
2022-08-27T13:23:58.091Z,22.29
2022-08-27T13:26:29.387Z,22.40
2022-08-27T13:29:03.049Z,22.38
2022-08-27T13:31:31.839Z,22.47
2022-08-27T13:41:55.236Z,22.05
2022-08-27T13:44:42.033Z,22.05
2022-08-27T13:47:20.457Z,22.02
2022-08-27T13:49:47.343Z,21.99
2022-08-27T13:52:58.635Z,22.15
2022-08-27T13:55:25.539Z,22.30
2022-08-27T13:57:52.418Z,22.38
2022-08-27T14:00:21.005Z,22.53
2022-08-27T14:02:55.528Z,22.59
2022-08-27T14:05:23.062Z,22.50
2022-08-27T14:07:55.834Z,22.54
2022-08-27T14:10:35.477Z,22.35
2022-08-27T14:13:06.223Z,22.53
2022-08-27T14:15:38.421Z,22.52
2022-08-27T14:18:08.689Z,22.41
2022-08-27T14:20:35.604Z,22.38
2022-08-27T14:23:02.175Z,22.38
2022-08-27T14:25:28.705Z,22.54
2022-08-27T14:27:57.235Z,22.48
2022-08-27T14:30:29.294Z,22.57
2022-08-27T14:32:58.889Z,22.51
2022-08-27T14:35:26.262Z,22.65
2022-08-27T14:37:54.155Z,22.57
2022-08-27T14:40:21.076Z,22.66
2022-08-27T14:42:47.741Z,22.70
2022-08-27T14:45:14.300Z,22.74
2022-08-27T14:47:41.982Z,22.66
2022-08-27T14:50:11.238Z,22.61
2022-08-27T14:52:39.819Z,22.48
2022-08-27T14:55:14.236Z,22.60
2022-08-27T14:57:41.047Z,22.61
2022-08-27T15:00:09.566Z,22.66
2022-08-27T15:02:44.387Z,22.52
2022-08-27T15:05:16.469Z,22.47
2022-08-27T15:07:47.138Z,22.48
2022-08-27T15:10:14.555Z,22.50
2022-08-27T15:12:41.373Z,22.66
2022-08-27T15:15:09.379Z,22.67
2022-08-27T15:17:36.363Z,22.79
2022-08-27T15:20:07.658Z,22.78
2022-08-27T15:22:36.517Z,22.79
2022-08-27T15:25:05.821Z,22.87
2022-08-27T15:27:38.605Z,22.88
2022-08-27T15:30:12.525Z,22.74
2022-08-27T15:32:45.781Z,22.53
2022-08-27T15:35:19.071Z,22.53
2022-08-27T15:37:46.313Z,22.44
2022-08-27T15:40:15.727Z,22.56
2022-08-27T15:42:42.839Z,22.55
2022-08-27T15:45:11.836Z,22.57
2022-08-27T15:47:38.887Z,22.60
2022-08-27T15:50:06.597Z,22.58
2022-08-27T15:52:40.225Z,22.57
2022-08-27T15:55:13.829Z,22.62
2022-08-27T15:57:40.345Z,22.67
2022-08-27T16:00:07.682Z,22.81
2022-08-27T16:02:34.386Z,22.91
2022-08-27T16:05:01.014Z,22.99
2022-08-27T16:07:28.463Z,23.03
2022-08-27T16:09:55.093Z,22.98
2022-08-27T16:12:26.923Z,23.04
2022-08-27T16:14:55.301Z,22.97
2022-08-27T16:17:23.147Z,22.78
2022-08-27T16:19:49.820Z,22.82
2022-08-27T16:22:16.450Z,22.81
2022-08-27T16:24:43.266Z,22.88
2022-08-27T16:27:10.077Z,22.94
2022-08-27T16:29:36.900Z,22.95
2022-08-27T16:32:04.454Z,22.96
2022-08-27T16:34:32.666Z,22.95
2022-08-27T16:37:00.040Z,22.92
2022-08-27T16:39:31.793Z,22.81
2022-08-27T16:42:00.456Z,22.85
2022-08-27T16:44:27.293Z,22.96
2022-08-27T16:46:53.848Z,23.03
2022-08-27T16:49:39.081Z,23.05
2022-08-27T16:52:07.193Z,23.03
2022-08-27T16:54:35.498Z,22.92
2022-08-27T16:57:02.291Z,22.86
2022-08-27T16:59:28.891Z,22.80
2022-08-27T17:01:55.914Z,22.84
2022-08-27T17:04:30.319Z,22.78
2022-08-27T17:07:02.160Z,22.74
2022-08-27T17:09:30.314Z,22.74
2022-08-27T17:11:57.955Z,22.73
2022-08-27T17:14:24.942Z,22.70
2022-08-27T17:16:53.751Z,22.76
2022-08-27T17:19:22.944Z,22.76
2022-08-27T17:21:50.618Z,22.84
2022-08-27T17:24:17.710Z,22.69
2022-08-27T17:26:44.871Z,22.71
2022-08-27T17:29:11.580Z,22.71
2022-08-27T17:31:41.644Z,22.65
2022-08-27T17:34:15.646Z,22.58
2022-08-27T17:36:44.426Z,22.61
2022-08-27T17:39:12.774Z,22.61
2022-08-27T17:41:42.399Z,22.66
2022-08-27T17:44:29.288Z,22.72
2022-08-27T17:47:01.535Z,22.89
2022-08-27T17:49:30.922Z,22.73
2022-08-27T17:52:00.849Z,22.66
2022-08-27T17:54:30.172Z,22.93
2022-08-27T17:56:57.331Z,22.98
2022-08-27T17:59:24.583Z,23.01
2022-08-27T18:01:51.568Z,22.83
2022-08-27T18:04:18.513Z,22.80
2022-08-27T18:06:45.197Z,22.82
2022-08-27T18:09:11.994Z,22.76
2022-08-27T18:11:40.056Z,22.66
2022-08-27T18:14:06.688Z,22.68
2022-08-27T18:16:34.415Z,22.68
2022-08-27T18:19:02.142Z,22.66
2022-08-27T18:21:33.729Z,22.70
2022-08-27T18:24:00.962Z,22.64
2022-08-27T18:26:29.325Z,22.64
2022-08-27T18:28:57.637Z,22.64
2022-08-27T18:31:29.613Z,22.61
2022-08-27T18:33:56.222Z,22.64
2022-08-27T18:36:23.382Z,22.63
2022-08-27T18:38:50.494Z,22.62
2022-08-27T18:41:18.936Z,22.60
2022-08-27T18:43:46.318Z,22.55
2022-08-27T18:46:14.004Z,22.51
2022-08-27T18:48:40.717Z,22.48
2022-08-27T18:51:10.205Z,22.55
2022-08-27T18:53:40.115Z,22.57
2022-08-27T18:56:09.317Z,22.53
2022-08-27T18:58:38.710Z,22.58
2022-08-27T19:01:10.002Z,22.54
2022-08-27T19:03:43.725Z,22.47
2022-08-27T19:06:11.256Z,22.46
2022-08-27T19:08:40.061Z,22.50
2022-08-27T19:11:06.640Z,22.50
2022-08-27T19:13:33.712Z,22.38
2022-08-27T19:16:08.078Z,22.37
2022-08-27T19:18:37.849Z,22.49
2022-08-27T19:21:06.048Z,22.43
2022-08-27T19:23:33.527Z,22.42
2022-08-27T19:26:01.346Z,22.34
2022-08-27T19:28:45.078Z,22.44
2022-08-27T19:31:13.301Z,22.42
2022-08-27T19:33:40.320Z,22.44
2022-08-27T19:36:11.471Z,22.47
2022-08-27T19:38:42.209Z,22.38
2022-08-27T19:41:08.931Z,22.42
2022-08-27T19:43:35.508Z,22.26
2022-08-27T19:46:04.657Z,22.35
2022-08-27T19:48:31.627Z,22.26
2022-08-27T19:50:58.616Z,22.35
2022-08-27T19:53:25.246Z,22.30
2022-08-27T19:55:51.863Z,22.36
2022-08-27T19:58:20.098Z,22.34
2022-08-27T20:00:47.226Z,22.29
2022-08-27T20:03:13.970Z,22.24
2022-08-27T20:05:40.701Z,22.24
2022-08-27T20:08:07.707Z,22.25
2022-08-27T20:10:36.599Z,22.16
2022-08-27T20:13:04.673Z,22.16
2022-08-27T20:15:31.445Z,22.10
2022-08-27T20:17:59.356Z,22.11
2022-08-27T20:20:28.175Z,22.12
2022-08-27T20:22:55.807Z,22.12
2022-08-27T20:25:23.854Z,22.04
2022-08-27T20:27:50.920Z,22.09
2022-08-27T20:30:19.858Z,22.10
2022-08-27T20:32:47.207Z,22.07
2022-08-27T20:35:14.739Z,22.12
2022-08-27T20:37:42.558Z,22.14
2022-08-27T20:40:14.035Z,22.04
2022-08-27T20:42:40.827Z,22.11
2022-08-27T20:45:11.955Z,22.22
2022-08-27T20:47:39.601Z,22.14
2022-08-27T20:50:06.906Z,22.20
2022-08-27T20:52:34.782Z,22.19
2022-08-27T20:55:02.484Z,22.23
2022-08-27T20:57:29.198Z,22.21
2022-08-27T21:00:14.374Z,22.20
2022-08-27T21:02:41.233Z,22.14
2022-08-27T21:05:11.562Z,22.10
2022-08-27T21:07:38.568Z,22.12
2022-08-27T21:10:06.784Z,22.14
2022-08-27T21:12:33.825Z,22.08
2022-08-27T21:15:02.747Z,22.06
2022-08-27T21:17:29.559Z,22.10
2022-08-27T21:19:56.496Z,22.06
2022-08-27T21:22:23.983Z,22.03
2022-08-27T21:24:51.746Z,22.08
2022-08-27T21:27:21.167Z,22.09
2022-08-27T21:29:48.592Z,22.07
2022-08-27T21:32:15.626Z,22.00
2022-08-27T21:34:42.547Z,22.00
2022-08-27T21:37:11.359Z,22.02
2022-08-27T21:39:39.292Z,21.97
2022-08-27T21:42:06.555Z,22.01
2022-08-27T21:44:34.274Z,22.00
2022-08-27T21:47:01.788Z,21.97
2022-08-27T21:49:28.861Z,21.91
2022-08-27T21:51:55.445Z,21.84
2022-08-27T21:54:23.467Z,21.92
2022-08-27T21:56:53.075Z,21.84
2022-08-27T21:59:19.968Z,21.85
2022-08-27T22:01:46.518Z,21.81
2022-08-27T22:04:13.488Z,21.71
2022-08-27T22:06:40.272Z,21.72
2022-08-27T22:09:06.939Z,21.71
2022-08-27T22:11:33.462Z,21.73
2022-08-27T22:14:00.051Z,21.65
2022-08-27T22:16:26.657Z,21.58
2022-08-27T22:18:54.869Z,21.50
2022-08-27T22:21:23.548Z,21.51
2022-08-27T22:23:51.463Z,21.41
2022-08-27T22:26:19.161Z,21.34
2022-08-27T22:28:45.792Z,21.34
2022-08-27T22:31:12.671Z,21.30
2022-08-27T22:33:39.554Z,21.28
2022-08-27T22:36:06.280Z,21.19
2022-08-27T22:38:33.174Z,21.19
2022-08-27T22:41:00.119Z,21.09
2022-08-27T22:43:27.970Z,21.13
2022-08-27T22:45:54.528Z,21.10
2022-08-27T22:48:21.170Z,21.11
2022-08-27T22:50:47.694Z,21.06
2022-08-27T22:53:14.524Z,20.91
2022-08-27T22:55:41.211Z,20.94
2022-08-27T22:58:07.907Z,20.89
2022-08-27T23:00:38.963Z,20.90
2022-08-27T23:03:09.036Z,20.81
2022-08-27T23:05:41.727Z,20.86
2022-08-27T23:08:11.001Z,20.81
2022-08-27T23:10:38.505Z,20.69
2022-08-27T23:13:05.466Z,20.83
2022-08-27T23:15:32.549Z,20.72
2022-08-27T23:18:00.519Z,20.66
2022-08-27T23:20:28.086Z,20.65
2022-08-27T23:22:55.136Z,20.60
2022-08-27T23:25:43.225Z,20.60
2022-08-27T23:28:14.392Z,20.50
2022-08-27T23:30:41.621Z,20.44
2022-08-27T23:33:08.173Z,20.55
2022-08-27T23:35:34.760Z,20.41
2022-08-27T23:38:01.341Z,20.42
2022-08-27T23:40:27.982Z,20.30
2022-08-27T23:42:54.969Z,20.39
2022-08-27T23:45:25.841Z,20.34
2022-08-27T23:47:53.094Z,20.30
2022-08-27T23:50:21.492Z,20.23
2022-08-27T23:53:01.666Z,20.14
2022-08-27T23:55:28.722Z,20.13
2022-08-27T23:57:57.577Z,20.00
